Data for 08/30/2008

Time Sea-Level Adjusted Pressure Absolute Pressure Temperature Relative Humidity Dew Point   
(mb) (inHg) (mb) (inHg) (C) (F) (%) (C) (F)
00:05 1013 29.91 843 24.89 19.3 66.7 33 2.6 36.7
00:10 1013 29.91 843 24.89 19.4 66.9 29 1 33.8
00:15 1013 29.91 843 24.89 20 68.1 33 3.4 38.2
00:20 1013 29.91 843 24.89 19.2 66.5 33 2.5 36.6
00:25 1013 29.91 843 24.89 18.6 65.6 32 1.8 35.3
00:30 1013 29.91 843 24.89 18.8 65.8 43 6 42.9
00:35 1013 29.91 842 24.86 18.5 65.3 30 0.8 33.4
00:40 1013 29.91 843 24.89 19.9 67.7 32 2.9 37.2
00:45 1013 29.91 842 24.86 18.8 65.8 36 3.4 38
00:50 1013 29.91 842 24.86 17.7 63.9 37 2.9 37.2
00:55 1013 29.91 842 24.86 17.7 63.8 35 2.3 36.2
01:00 1013 29.91 842 24.86 17.5 63.5 37 2.6 36.7
01:05 1013 29.91 842 24.86 17.1 62.7 36 2.2 35.9
01:10 1013 29.91 842 24.86 16.9 62.5 37 2.4 36.3
01:15 1013 29.91 842 24.86 17 62.5 37 2.3 36.2
01:20 1013 29.91 842 24.86 17.1 62.7 35 1.5 34.7
01:25 1013 29.91 842 24.86 17.5 63.6 40 4 39.2
01:30 1013 29.91 842 24.86 17.5 63.6 33 1.3 34.4
01:35 1013 29.91 842 24.86 18 64.3 33 1.6 34.8
01:40 1013 29.91 842 24.86 17.5 63.4 39 3.5 38.3
01:45 1013 29.91 842 24.86 16.8 62.2 36 1.7 35.1
01:50 1013 29.91 842 24.86 17 62.6 35 1.6 34.9
01:55 1013 29.91 842 24.86 16.7 62 36 1.8 35.2
02:00 1013 29.91 842 24.86 17.2 62.9 34 1.2 34.1
02:05 1013 29.91 842 24.86 16.9 62.4 37 2.2 35.9
02:10 1013 29.91 842 24.86 16.5 61.6 37 1.8 35.2
02:15 1013 29.91 842 24.86 16.3 61.4 39 2.3 36.2
02:20 1013 29.91 842 24.86 16 60.8 42 3.3 38
02:25 1013 29.91 842 24.86 15.4 59.7 40 2.1 35.8
02:30 1013 29.91 842 24.86 15.5 59.9 40 2.2 36
02:35 1013 29.91 842 24.86 15.4 59.7 40 2 35.7
02:40 1013 29.91 842 24.86 15.1 59.2 41 2.2 35.9
02:45 1013 29.91 842 24.86 15.1 59.1 41 2.2 35.9
02:50 1013 29.91 842 24.86 15.3 59.5 41 2.3 36.2
02:55 1013 29.91 842 24.86 15.1 59.2 41 2 35.6
03:00 1013 29.91 842 24.86 14.9 58.8 41 1.8 35.3
03:05 1013 29.91 842 24.86 14.9 58.9 41 1.9 35.5
03:10 1013 29.91 842 24.86 15.3 59.5 39 1.6 34.8
03:15 1013 29.91 842 24.86 15.4 59.7 39 1.6 34.8
03:20 1013 29.91 842 24.86 15.8 60.4 36 0.9 33.6
03:25 1013 29.91 842 24.86 15.9 60.7 38 1.8 35.2
03:30 1013 29.91 842 24.86 16 60.7 37 1.3 34.3
03:35 1013 29.91 842 24.86 16 60.9 36 1.1 34
03:40 1013 29.91 842 24.86 15.8 60.4 38 1.7 35
03:45 1013 29.91 842 24.86 15.1 59.2 40 1.7 35
03:50 1013 29.91 842 24.86 14.9 58.8 39 1.1 33.9
03:55 1013 29.91 842 24.86 15.3 59.6 37 0.9 33.6
04:00 1013 29.91 842 24.86 15.5 59.9 37 1 33.7
04:05 1013 29.91 842 24.86 15.8 60.4 36 0.8 33.4
04:10 1013 29.91 842 24.86 16 60.8 35 0.7 33.3
04:15 1013 29.91 842 24.86 16.2 61.2 34 0.4 32.7
04:20 1013 29.91 842 24.86 16.4 61.5 34 0.5 32.9
04:25 1013 29.91 842 24.86 16.4 61.6 34 0.6 33
04:30 1013 29.91 842 24.86 16.7 62 33 0.6 33.1
04:35 1013 29.91 842 24.86 16.7 62.1 33 0.6 33.1
04:40 1013 29.91 842 24.86 16.6 61.8 36 1.5 34.7
04:45 1013 29.91 842 24.86 16 60.8 38 1.7 35.1
04:50 1013 29.91 842 24.86 15.6 60 38 1.5 34.7
04:55 1013 29.91 842 24.86 15.4 59.7 37 0.9 33.7
05:00 1013 29.91 842 24.86 15.4 59.8 38 1.4 34.5
05:05 1013 29.91 842 24.86 15.4 59.6 36 0.7 33.2
05:10 1013 29.91 842 24.86 15.5 59.9 36 0.5 32.9
05:15 1013 29.91 842 24.86 15.8 60.5 35 0.3 32.6
05:20 1012 29.88 842 24.86 16.1 61 33 0.1 32.2
05:25 1012 29.88 842 24.86 16.2 61.1 34 0.2 32.4
05:30 1012 29.88 842 24.86 16.3 61.3 33 -0 31.9
05:35 1012 29.88 842 24.86 16.1 61 34 0.6 33
05:40 1012 29.88 842 24.86 15.7 60.2 36 0.8 33.4
05:45 1012 29.88 842 24.86 15.4 59.8 36 0.5 32.9
05:50 1012 29.88 842 24.86 15.5 59.8 36 0.6 33.1
05:55 1012 29.88 842 24.86 15.6 60 34 -0.1 31.7
06:00 1012 29.88 842 24.86 15.7 60.2 36 0.9 33.7
06:05 1012 29.88 842 24.86 15.1 59.2 37 0.6 33.1
06:10 1012 29.88 842 24.86 15 59.1 38 0.9 33.6
06:15 1012 29.88 842 24.86 15 59 37 0.3 32.6
06:20 1012 29.88 842 24.86 15.2 59.3 36 0.4 32.7
06:25 1012 29.88 842 24.86 15.3 59.5 36 0.3 32.5
06:30 1012 29.88 842 24.86 15.7 60.2 34 -0.1 31.8
06:35 1012 29.88 841 24.83 15.6 60.2 36 0.7 33.3
06:40 1012 29.88 841 24.83 14.9 58.8 39 1.3 34.4
06:45 1012 29.88 842 24.86 14.6 58.2 35 -0.5 31.2
06:50 1012 29.88 842 24.86 15.2 59.4 34 -0.4 31.3
06:55 1012 29.88 841 24.83 15.6 60 35 0.3 32.6
07:00 1012 29.88 841 24.83 15.2 59.4 35 -0.2 31.7
07:05 1012 29.88 841 24.83 15.6 60.1 34 0 32.1
07:10 1012 29.88 841 24.83 15.7 60.3 33 -0.3 31.4
07:15 1012 29.88 841 24.83 15.5 60 36 0.6 33.1
07:20 1012 29.88 841 24.83 15.1 59.2 34 -0.6 30.9
07:25 1012 29.88 841 24.83 15.3 59.6 36 0.3 32.6
07:30 1012 29.88 841 24.83 14.9 58.8 37 0.6 33
07:35 1012 29.88 841 24.83 15 58.9 36 0.1 32.1
07:40 1012 29.88 841 24.83 15.9 60.5 33 -0.4 31.2
07:45 1012 29.88 841 24.83 16.7 62 31 -0.5 31.1
07:50 1012 29.88 841 24.83 17 62.7 32 0.2 32.4
07:55 1012 29.88 841 24.83 17.1 62.8 32 0.5 32.8
08:00 1012 29.88 841 24.83 17.3 63.1 32 0.5 32.9
08:05 1012 29.88 841 24.83 17.7 63.8 32 0.7 33.2
08:10 1012 29.88 841 24.83 18.1 64.6 29 -0 32
08:15 1012 29.88 841 24.83 18.8 65.8 28 0.2 32.3
08:20 1012 29.88 841 24.83 19.2 66.5 29 0.8 33.4
08:25 1012 29.88 841 24.83 19.2 66.5 30 1.3 34.3
08:30 1012 29.88 841 24.83 19.6 67.3 29 1.1 34.1
08:35 1012 29.88 841 24.83 20.3 68.6 28 1.4 34.6
08:40 1012 29.88 841 24.83 20.8 69.4 29 2.3 36.1
08:45 1011 29.85 841 24.83 21 69.7 32 3.7 38.7
08:50 1011 29.85 841 24.83 21.1 69.9 29 2.7 36.8
08:55 1011 29.85 841 24.83 21.2 70.1 29 2.6 36.6
09:00 1011 29.85 841 24.83 21.4 70.4 31 3.9 39
09:05 1011 29.85 841 24.83 21.7 71 28 2.4 36.4
09:10 1011 29.85 840 24.81 21.8 71.2 28 2.5 36.6
09:15 1011 29.85 840 24.81 22.1 71.7 29 3.3 37.9
09:20 1011 29.85 840 24.81 22.4 72.3 27 2.8 37.1
09:25 1011 29.85 840 24.81 22.5 72.5 27 2.7 36.8
09:30 1011 29.85 840 24.81 22.8 73 28 3.7 38.7
09:35 1011 29.85 840 24.81 23 73.3 27 3.3 37.9
09:40 1011 29.85 840 24.81 23 73.3 26 2.9 37.2
09:45 1011 29.85 840 24.81 23 73.5 27 3.2 37.8
09:50 1011 29.85 840 24.81 23.2 73.8 27 3.4 38.2
09:55 1011 29.85 840 24.81 23.3 73.9 31 5.5 42
10:00 1011 29.85 840 24.81 22.5 72.5 33 5.8 42.5
10:05 1011 29.85 840 24.81 23 73.4 30 4.6 40.3
10:10 1011 29.85 840 24.81 23.7 74.7 26 3.4 38.1
10:15 1011 29.85 840 24.81 24 75.1 29 5.1 41.1
10:20 1011 29.85 840 24.81 24.2 75.5 29 5.4 41.7
10:25 1011 29.85 840 24.81 24.7 76.5 26 3.9 39
10:30 1011 29.85 840 24.81 25.3 77.6 26 4.7 40.5
10:35 1011 29.85 840 24.81 25.5 78 31 7.2 45
10:40 1011 29.85 840 24.81 25.2 77.4 29 6.2 43.2
10:45 1010 29.83 840 24.81 25.5 78 29 6.6 43.9
10:50 1010 29.83 840 24.81 25.8 78.4 29 6.5 43.6
10:55 1010 29.83 840 24.81 25.7 78.2 30 6.9 44.4
11:00 1010 29.83 840 24.81 25.2 77.4 29 6.4 43.5
11:05 1010 29.83 840 24.81 25.4 77.7 29 6.3 43.3
11:10 1010 29.83 839 24.78 25.9 78.6 28 6.3 43.4
11:15 1010 29.83 839 24.78 26.2 79.2 29 7.2 44.9
11:20 1010 29.83 839 24.78 26.2 79.1 29 7.2 45
11:25 1010 29.83 839 24.78 26.4 79.4 29 7.4 45.2
11:30 1010 29.83 839 24.78 26.7 80.1 28 7 44.6
11:35 1010 29.83 839 24.78 27.1 80.7 25 5.7 42.3
11:40 1010 29.83 839 24.78 26.7 80 26 6.1 43
11:45 1010 29.83 839 24.78 27.8 82.1 25 6.1 43.1
11:50 1010 29.83 839 24.78 27.3 81.1 26 6.1 43
11:55 1010 29.83 839 24.78 26.8 80.2 25 5.5 41.9
12:00 1010 29.83 839 24.78 27.5 81.5 25 5.8 42.4
12:05 1010 29.83 839 24.78 28.3 83 21 4.1 39.3
12:10 1009 29.8 839 24.78 28.1 82.6 22 4.6 40.2
12:15 1009 29.8 839 24.78 28.8 83.8 21 4.8 40.7
12:20 1009 29.8 839 24.78 29.4 85 21 5.3 41.6
12:25 1009 29.8 838 24.75 29.9 85.8 19 3.9 39.1
12:30 1009 29.8 838 24.75 30.1 86.2 17 2.5 36.5
12:35 1009 29.8 838 24.75 31 87.8 15 1.5 34.6
12:40 1009 29.8 838 24.75 30.8 87.4 16 2.4 36.3
12:45 1009 29.8 838 24.75 30.5 86.8 14 0.7 33.3
12:50 1009 29.8 838 24.75 29.8 85.6 17 2.5 36.6
12:55 1009 29.8 838 24.75 30.2 86.4 15 1.3 34.4
13:00 1009 29.8 838 24.75 30.1 86.1 15 1 33.8
13:05 1009 29.8 838 24.75 29.9 85.8 16 1.5 34.8
13:10 1009 29.8 838 24.75 29.6 85.3 16 1.8 35.3
13:15 1009 29.8 838 24.75 29.7 85.5 17 2.5 36.5
13:20 1009 29.8 838 24.75 29.9 85.7 15 1 33.8
13:25 1009 29.8 838 24.75 29.8 85.6 15 0.9 33.6
13:30 1009 29.8 838 24.75 29.3 84.7 16 0.8 33.5
13:35 1009 29.8 838 24.75 29.3 84.7 15 0.5 33
13:40 1009 29.8 838 24.75 29.3 84.7 16 1.3 34.4
13:45 1009 29.8 838 24.75 29.4 84.8 15 0.5 32.9
13:50 1009 29.8 838 24.75 28.9 84 15 0.4 32.7
13:55 1009 29.8 838 24.75 28.9 84.1 16 1.1 34
14:00 1009 29.8 838 24.75 28.8 83.8 17 1.6 34.8
14:05 1009 29.8 838 24.75 28.3 83 15 -0.7 30.8
14:10 1009 29.8 838 24.75 28.3 82.9 15 -0.7 30.8
14:15 1009 29.8 838 24.75 28.3 82.9 15 -1 30.3
14:20 1009 29.8 838 24.75 28.3 83 14 -1 30.1
14:25 1009 29.8 838 24.75 28.4 83.1 15 0 32.1
14:30 1009 29.8 838 24.75 28.6 83.5 14 -1 30.1
14:35 1009 29.8 838 24.75 28.8 83.9 15 -0.5 31.1
14:40 1009 29.8 838 24.75 28.5 83.2 15 -0.7 30.7
14:45 1009 29.8 838 24.75 28 82.4 17 0.6 33.1
14:50 1009 29.8 839 24.78 27.4 81.3 16 -0 32
14:55 1009 29.8 839 24.78 27.3 81.2 16 -0.3 31.5
15:00 1009 29.8 839 24.78 27.5 81.5 15 -0.8 30.5
15:05 1009 29.8 839 24.78 27.7 81.8 15 -0.7 30.8
15:10 1009 29.8 838 24.75 27.8 82 16 -0.4 31.2
15:15 1009 29.8 838 24.75 27.6 81.7 15 -0.9 30.5
15:20 1009 29.8 838 24.75 27.5 81.4 15 -1 30.2
15:25 1009 29.8 838 24.75 27.5 81.5 15 -0.9 30.4
15:30 1009 29.8 838 24.75 27.6 81.6 14 -1.5 29.2
15:35 1009 29.8 838 24.75 27.9 82.2 15 -0.8 30.6
15:40 1009 29.8 838 24.75 27.8 82 15 -1 30.2
15:45 1009 29.8 838 24.75 27.7 81.8 15 -0.7 30.7
15:50 1009 29.8 838 24.75 27.6 81.6 16 -0.1 31.8
15:55 1009 29.8 838 24.75 27.3 81.2 17 0.1 32.1
16:00 1009 29.8 838 24.75 27.3 81.1 17 0.2 32.3
16:05 1009 29.8 838 24.75 27.2 80.9 16 -0.5 31.2
16:10 1009 29.8 838 24.75 27.3 81.1 15 -0.9 30.3
16:15 1009 29.8 838 24.75 27.3 81.2 17 0.4 32.7
16:20 1009 29.8 838 24.75 27.1 80.9 15 -1 30.1
16:25 1009 29.8 838 24.75 27 80.5 17 0.2 32.4
16:30 1009 29.8 838 24.75 26.9 80.5 18 0.6 33.2
16:35 1009 29.8 838 24.75 26.8 80.2 17 -0.1 31.9
16:40 1009 29.8 838 24.75 26.8 80.3 17 0.3 32.5
16:45 1008 29.77 838 24.75 26.8 80.3 17 -0.2 31.6
16:50 1009 29.8 838 24.75 27 80.5 17 0.3 32.5
16:55 1008 29.77 838 24.75 27.1 80.7 17 0.1 32.1
17:00 1008 29.77 838 24.75 27 80.5 18 0.9 33.6
17:05 1008 29.77 838 24.75 27 80.7 17 0 32.1
17:10 1008 29.77 837 24.72 27.2 81 16 -0.5 31.1
17:15 1008 29.77 837 24.72 27.4 81.3 17 0.5 32.9
17:20 1008 29.77 837 24.72 27.4 81.3 18 0.9 33.7
17:25 1008 29.77 837 24.72 27.3 81.1 18 0.8 33.5
17:30 1008 29.77 837 24.72 27.2 80.9 17 0.1 32.2
17:35 1008 29.77 837 24.72 26.9 80.5 19 1.5 34.6
17:40 1008 29.77 837 24.72 26.9 80.4 18 0.8 33.5
17:45 1008 29.77 837 24.72 27.1 80.7 18 1 33.8
17:50 1008 29.77 837 24.72 27.2 80.9 15 -1 30.2
17:55 1008 29.77 837 24.72 27.5 81.5 15 -1.3 29.7
18:00 1008 29.77 837 24.72 27.5 81.4 15 -1 30.2
18:05 1008 29.77 837 24.72 27.4 81.3 17 0.3 32.5
18:10 1008 29.77 837 24.72 27.6 81.7 15 -0.8 30.5
18:15 1008 29.77 837 24.72 27.7 81.9 15 -0.9 30.4
18:20 1008 29.77 837 24.72 27.8 82.1 16 -0.4 31.4
18:25 1008 29.77 837 24.72 27.9 82.2 16 0.2 32.4
18:30 1007 29.74 837 24.72 27.8 82.1 15 -1 30.3
18:35 1007 29.74 837 24.72 27.8 82.1 15 -0.9 30.3
18:40 1007 29.74 836 24.69 27.8 82.1 15 -1.3 29.6
18:45 1007 29.74 836 24.69 28 82.4 15 -0.9 30.4
18:50 1007 29.74 836 24.69 27.9 82.2 15 -1.1 30
18:55 1007 29.74 836 24.69 27.8 82.1 15 -1.1 29.9
19:00 1007 29.74 836 24.69 27.7 81.9 15 -1.3 29.7
19:05 1007 29.74 836 24.69 27.8 82.1 15 -1.1 29.9
19:10 1007 29.74 836 24.69 27.8 82.1 14 -2 28.5
19:15 1007 29.74 836 24.69 28 82.3 15 -1.2 29.8
19:20 1007 29.74 836 24.69 27.6 81.7 15 -0.9 30.3
19:25 1007 29.74 836 24.69 27.3 81.2 15 -1 30.2
19:30 1006 29.71 836 24.69 27 80.5 15 -1.2 29.8
19:35 1006 29.71 836 24.69 26.9 80.3 16 -0.8 30.6
19:40 1006 29.71 836 24.69 26.8 80.2 17 -0.4 31.2
19:45 1006 29.71 836 24.69 26.4 79.5 18 0.3 32.6
19:50 1006 29.71 836 24.69 25.9 78.6 18 0.2 32.4
19:55 1006 29.71 836 24.69 25.7 78.3 20 1.5 34.8
20:00 1006 29.71 835 24.66 25.6 78.2 21 2.2 36
20:05 1006 29.71 836 24.69 25.4 77.8 20 0.9 33.6
20:10 1006 29.71 836 24.69 25 77 20 0.8 33.4
20:15 1006 29.71 836 24.69 24.7 76.5 20 0.3 32.5
20:20 1006 29.71 835 24.66 24.5 76.2 22 1.7 35.1
20:25 1006 29.71 835 24.66 24.3 75.7 22 1.3 34.4
20:30 1006 29.71 835 24.66 24.2 75.5 20 0.1 32.1
20:35 1006 29.71 835 24.66 24.4 75.9 20 -0 31.9
20:40 1006 29.71 835 24.66 24.6 76.3 19 -0.4 31.2
20:45 1006 29.71 836 24.69 24.6 76.3 19 -0.6 31
20:50 1006 29.71 836 24.69 24.7 76.5 18 -0.7 30.7
20:55 1007 29.74 836 24.69 24.9 76.8 19 -0.4 31.3
21:00 1007 29.74 836 24.69 24.4 75.8 22 1.8 35.3
21:05 1007 29.74 836 24.69 23.1 73.6 23 1.1 34
21:10 1007 29.74 836 24.69 22.8 73 24 1.1 34
21:15 1007 29.74 836 24.69 22.9 73.2 23 1 33.8
21:20 1007 29.74 836 24.69 23.2 73.8 23 1.4 34.5
21:25 1007 29.74 836 24.69 23 73.4 25 2 35.6
21:30 1007 29.74 836 24.69 22.4 72.2 27 2.8 37
21:35 1007 29.74 836 24.69 21.7 71 28 2.7 36.9
21:40 1007 29.74 836 24.69 21.5 70.7 28 2.3 36.2
21:45 1007 29.74 837 24.72 21.4 70.4 29 2.6 36.7
21:50 1007 29.74 837 24.72 21.2 70.1 30 2.9 37.3
21:55 1007 29.74 837 24.72 21.1 69.9 30 2.9 37.2
22:00 1007 29.74 837 24.72 21 69.7 30 3 37.3
22:05 1007 29.74 837 24.72 20.7 69.3 31 3.3 38
22:10 1007 29.74 837 24.72 19.5 67.1 37 4.7 40.4
22:15 1007 29.74 837 24.72 18.8 65.9 36 3.5 38.2
22:20 1007 29.74 837 24.72 19.1 66.4 35 3.4 38.1
22:25 1007 29.74 837 24.72 19.3 66.7 35 3.6 38.4
22:30 1007 29.74 837 24.72 19.5 67 34 3.4 38.2
22:35 1007 29.74 836 24.69 19.6 67.3 35 4 39.2
22:40 1007 29.74 836 24.69 19.5 67.1 34 3.5 38.2
22:45 1007 29.74 837 24.72 19.6 67.4 34 3.4 38.1
22:50 1007 29.74 837 24.72 19.7 67.4 34 3.4 38.1
22:55 1007 29.74 837 24.72 19.1 66.3 37 4.3 39.8
23:00 1007 29.74 837 24.72 18.5 65.2 36 3.4 38.1
23:05 1007 29.74 837 24.72 18.8 65.9 35 3.1 37.5
23:10 1007 29.74 837 24.72 19 66.3 33 2.4 36.4
23:15 1007 29.74 837 24.72 19.6 67.2 31 2.2 36
23:20 1007 29.74 837 24.72 19.8 67.7 36 4.6 40.3
23:25 1008 29.77 837 24.72 19.5 67 34 3.3 38
23:30 1008 29.77 837 24.72 19 66.3 33 2.4 36.3
23:35 1008 29.77 837 24.72 19.2 66.6 33 2.6 36.7
23:40 1008 29.77 837 24.72 19.2 66.5 36 4 39.3
23:45 1008 29.77 837 24.72 18.7 65.7 33 2.3 36.2
23:50 1008 29.77 837 24.72 18.8 65.9 32 2 35.6
23:55 1008 29.77 837 24.72 18.9 66 33 2.4 36.3
24:00 1008 29.77 837 24.72 18.4 65.1 35 2.6 36.7